createdAt,value
2023-04-02T07:54:36.023Z,1.60
2023-04-02T07:57:02.841Z,2.00
2023-04-02T07:59:29.585Z,2.57
2023-04-02T08:06:08.030Z,1.87
2023-04-02T08:08:38.196Z,3.80
2023-04-02T08:11:05.162Z,4.37
2023-04-02T08:13:36.507Z,4.37
2023-04-02T12:16:16.647Z,1.80
2023-04-02T12:18:46.920Z,1.70
2023-04-02T12:24:01.995Z,1.90
2023-04-02T12:26:52.857Z,2.10
2023-04-02T12:29:27.644Z,2.43
2023-04-02T12:31:56.464Z,2.40
2023-04-02T12:34:26.487Z,3.30
2023-04-02T12:36:54.309Z,2.00
2023-04-02T12:39:21.975Z,4.40
2023-04-02T12:41:49.090Z,11.07
2023-04-02T12:44:18.924Z,3.77
2023-04-02T12:46:46.640Z,2.10
2023-04-02T12:49:39.303Z,1.87
2023-04-02T12:52:17.908Z,3.30
2023-04-02T12:54:57.313Z,3.30
2023-04-02T12:57:29.802Z,3.57
2023-04-02T13:00:05.597Z,3.03
2023-04-02T13:02:44.591Z,3.03
2023-04-02T13:05:12.362Z,3.40
2023-04-02T13:07:39.620Z,2.10
2023-04-02T13:10:24.536Z,2.00
2023-04-02T13:12:56.712Z,2.40
2023-04-02T13:15:28.317Z,2.53
2023-04-02T13:18:13.262Z,3.23
2023-04-02T13:20:41.754Z,3.27
2023-04-02T13:23:27.140Z,3.00
2023-04-02T13:25:53.856Z,2.83
2023-04-02T13:28:21.696Z,1.80
2023-04-02T13:30:48.501Z,1.70
2023-04-02T13:33:16.134Z,1.40
2023-04-02T13:35:43.971Z,2.00
2023-04-02T13:38:10.859Z,1.77
2023-04-02T13:40:38.214Z,1.90
2023-04-02T13:43:06.550Z,1.50
2023-04-02T13:45:37.624Z,1.60
2023-04-02T13:48:05.777Z,2.10
2023-04-02T13:50:34.713Z,1.40
2023-04-02T13:53:08.302Z,2.20
2023-04-02T13:55:40.753Z,1.60
2023-04-02T13:58:07.557Z,1.60
2023-04-02T14:00:37.606Z,1.60
2023-04-02T14:03:13.171Z,1.70
2023-04-02T14:06:01.363Z,1.60
2023-04-02T14:08:31.156Z,1.27
2023-04-02T14:11:05.728Z,1.40
2023-04-02T14:13:41.229Z,1.43
2023-04-02T14:16:39.677Z,1.10
2023-04-02T14:19:27.700Z,1.07
2023-04-02T14:22:07.823Z,1.00
2023-04-02T14:24:34.461Z,1.00
2023-04-02T14:27:26.211Z,1.00
2023-04-02T14:30:25.340Z,0.80
2023-04-02T14:33:01.430Z,1.83
2023-04-02T14:35:47.165Z,1.10
2023-04-02T14:38:17.483Z,1.30
2023-04-02T14:40:56.015Z,1.20
2023-04-02T14:43:32.372Z,0.80
2023-04-02T14:46:04.459Z,1.00
2023-04-02T14:48:55.963Z,1.60
2023-04-02T14:51:45.721Z,4.00
2023-04-02T14:54:43.598Z,2.60
2023-04-02T14:57:29.780Z,1.40
2023-04-02T15:00:10.795Z,1.70
2023-04-02T15:02:42.983Z,2.87
2023-04-02T15:05:24.698Z,1.53
2023-04-02T15:08:01.554Z,1.77
2023-04-02T15:10:35.602Z,2.27
2023-04-02T15:13:08.074Z,2.20
2023-04-02T15:15:46.716Z,2.10
2023-04-02T15:18:15.776Z,2.00
2023-04-02T15:20:50.708Z,1.70
2023-04-02T15:23:29.135Z,1.80
2023-04-02T15:26:10.017Z,1.50
2023-04-02T15:28:45.096Z,1.77
2023-04-02T15:31:15.069Z,1.63
2023-04-02T15:34:08.957Z,1.23
2023-04-02T15:37:09.523Z,1.80
2023-04-02T15:39:39.294Z,1.70
2023-04-02T15:42:20.080Z,1.20
2023-04-02T15:45:01.981Z,1.20
2023-04-02T15:47:50.674Z,1.23
2023-04-02T15:50:39.891Z,1.30
2023-04-02T15:53:25.511Z,1.20
2023-04-02T15:56:07.473Z,4.03
2023-04-02T15:59:01.881Z,1.40
2023-04-02T16:01:53.106Z,1.10
2023-04-02T16:05:01.055Z,1.30
2023-04-02T16:07:46.643Z,1.33
2023-04-02T16:10:40.855Z,1.40
2023-04-02T16:13:19.604Z,1.47
2023-04-02T16:16:05.871Z,1.20
2023-04-02T16:18:44.690Z,1.97
2023-04-02T16:21:17.559Z,1.40
2023-04-02T16:23:44.444Z,1.70
2023-04-02T16:26:35.359Z,1.60
2023-04-02T16:29:13.552Z,1.30
2023-04-02T16:32:04.902Z,1.70
2023-04-02T16:34:40.174Z,1.50
2023-04-02T16:37:12.649Z,1.80
2023-04-02T16:39:48.362Z,2.23
2023-04-02T16:42:18.502Z,3.30
2023-04-02T16:44:58.305Z,2.60
2023-04-02T16:48:02.788Z,1.70
2023-04-02T16:51:07.236Z,1.70
2023-04-02T16:54:00.408Z,1.80
2023-04-02T16:56:49.616Z,1.73
2023-04-02T16:59:44.117Z,4.80
2023-04-02T17:02:26.306Z,3.93
2023-04-02T17:05:09.893Z,3.20
2023-04-02T17:08:01.760Z,2.40
2023-04-02T17:10:35.844Z,2.40
2023-04-02T17:13:27.039Z,2.30
2023-04-02T17:16:03.984Z,2.47
2023-04-02T17:18:32.728Z,2.60
2023-04-02T17:21:07.383Z,3.40
2023-04-02T17:23:55.280Z,3.43
2023-04-02T17:26:28.217Z,2.57
2023-04-02T17:28:57.431Z,2.20
2023-04-02T17:31:27.284Z,1.80
2023-04-02T17:33:54.051Z,1.87
2023-04-02T17:36:33.217Z,1.80
2023-04-02T17:39:35.173Z,1.83
2023-04-02T17:42:29.514Z,2.17
2023-04-02T17:45:07.946Z,2.33
2023-04-02T17:47:43.273Z,2.60
2023-04-02T17:50:15.920Z,2.50
2023-04-02T17:52:53.248Z,2.20
2023-04-02T17:55:31.797Z,2.47
2023-04-02T17:58:14.992Z,3.87
2023-04-02T18:00:52.625Z,3.00
2023-04-02T18:03:38.510Z,2.43
2023-04-02T18:06:49.085Z,2.80
2023-04-02T18:09:45.917Z,2.87
2023-04-02T18:12:40.278Z,3.07
2023-04-02T18:15:47.856Z,2.97
2023-04-02T18:18:32.648Z,2.97
2023-04-02T18:21:27.282Z,3.47
2023-04-02T18:24:02.874Z,3.83
2023-04-02T18:26:44.263Z,3.67
2023-04-02T18:29:19.696Z,3.80
2023-04-02T18:32:01.732Z,3.30
2023-04-02T18:34:49.859Z,3.33
2023-04-02T18:37:23.414Z,4.90
2023-04-02T18:40:22.213Z,4.23
2023-04-02T18:43:18.851Z,4.10
2023-04-02T18:46:05.219Z,4.10
2023-04-02T18:48:50.504Z,4.07
2023-04-02T18:51:25.947Z,3.63
2023-04-02T18:54:18.267Z,3.30
2023-04-02T18:56:54.453Z,3.30
2023-04-02T18:59:35.953Z,3.80
2023-04-02T19:02:38.023Z,3.77
2023-04-02T19:05:13.845Z,3.40
2023-04-02T19:07:44.383Z,9.20
2023-04-02T19:10:44.698Z,7.63
2023-04-02T19:13:17.000Z,5.37
2023-04-02T19:15:54.719Z,7.80
2023-04-02T19:18:36.647Z,7.13
2023-04-02T19:21:35.598Z,6.80
2023-04-02T19:24:52.404Z,6.07
2023-04-02T19:27:52.801Z,4.40
2023-04-02T19:31:21.259Z,5.23
2023-04-02T22:29:12.731Z,6.70
2023-04-02T22:31:39.945Z,6.27
2023-04-02T22:34:06.896Z,5.67
2023-04-02T22:36:34.274Z,6.67
2023-04-02T22:39:01.733Z,6.50
2023-04-02T22:41:29.654Z,6.03
2023-04-02T22:43:57.417Z,6.40
2023-04-02T22:46:26.544Z,6.80
2023-04-02T22:48:54.288Z,6.77
2023-04-02T22:51:22.447Z,7.23
2023-04-02T22:53:49.993Z,6.77
2023-04-02T22:56:20.118Z,6.73
2023-04-02T22:58:46.957Z,6.47
2023-04-02T23:01:23.192Z,7.00
2023-04-02T23:03:50.126Z,6.63
2023-04-02T23:06:18.332Z,7.13
2023-04-02T23:08:46.062Z,7.47
2023-04-02T23:11:18.333Z,6.90
2023-04-02T23:13:46.889Z,7.10
2023-04-02T23:16:14.457Z,6.90
2023-04-02T23:18:42.883Z,7.30
2023-04-02T23:21:10.130Z,7.40
2023-04-02T23:23:37.290Z,7.77
2023-04-02T23:26:19.401Z,7.47
2023-04-02T23:28:46.162Z,7.43
2023-04-02T23:31:15.776Z,7.60
2023-04-02T23:33:42.918Z,7.70
2023-04-02T23:36:13.393Z,7.63
2023-04-02T23:38:40.246Z,7.53
2023-04-02T23:41:06.960Z,7.83
2023-04-02T23:43:34.145Z,8.87
2023-04-02T23:46:01.076Z,8.20
2023-04-02T23:48:27.953Z,7.57
2023-04-02T23:50:54.668Z,8.17
2023-04-02T23:53:21.376Z,8.10
2023-04-02T23:55:48.249Z,8.53
2023-04-02T23:58:15.401Z,8.00
